createdAt,value
2019-05-09T00:01:14.185Z,100.00
2019-05-09T00:03:44.346Z,100.00
2019-05-09T00:06:13.755Z,100.00
2019-05-09T00:08:44.228Z,100.00
2019-05-09T00:11:14.521Z,100.00
2019-05-09T00:13:43.502Z,100.00
2019-05-09T00:16:14.466Z,100.00
2019-05-09T00:18:44.100Z,100.00
2019-05-09T00:21:13.997Z,100.00
2019-05-09T00:23:43.732Z,100.00
2019-05-09T00:26:13.418Z,100.00
2019-05-09T00:28:44.188Z,100.00
2019-05-09T00:31:14.341Z,100.00
2019-05-09T00:33:47.805Z,100.00
2019-05-09T00:36:14.537Z,100.00
2019-05-09T00:38:44.701Z,100.00
2019-05-09T00:41:13.928Z,99.49
2019-05-09T00:43:44.208Z,98.15
2019-05-09T00:46:14.256Z,98.35
2019-05-09T00:48:53.567Z,98.22
2019-05-09T00:51:23.310Z,97.77
2019-05-09T00:53:53.628Z,98.53
2019-05-09T00:56:23.991Z,98.99
2019-05-09T00:58:53.538Z,99.55
2019-05-09T01:01:23.990Z,99.35
2019-05-09T01:03:53.513Z,97.76
2019-05-09T01:06:23.849Z,98.08
2019-05-09T01:08:53.614Z,97.78
2019-05-09T01:11:24.294Z,98.25
2019-05-09T01:13:54.296Z,96.38
2019-05-09T01:16:24.165Z,95.59
2019-05-09T01:18:54.361Z,95.09
2019-05-09T01:21:24.044Z,94.04
2019-05-09T01:23:53.979Z,93.34
2019-05-09T01:26:23.931Z,93.37
2019-05-09T01:28:54.109Z,93.24
2019-05-09T01:31:24.099Z,92.51
2019-05-09T01:34:06.758Z,92.85
2019-05-09T01:36:54.027Z,92.27
2019-05-09T01:39:24.185Z,91.56
2019-05-09T01:41:53.161Z,91.69
2019-05-09T01:44:23.814Z,91.88
2019-05-09T01:46:53.876Z,90.90
2019-05-09T01:49:23.275Z,90.06
2019-05-09T01:51:53.688Z,89.37
2019-05-09T01:54:23.761Z,88.85
2019-05-09T01:56:53.712Z,89.22
2019-05-09T01:59:24.247Z,89.64
2019-05-09T02:01:54.121Z,89.26
2019-05-09T02:04:24.318Z,89.20
2019-05-09T02:06:53.886Z,89.90
2019-05-09T02:09:23.417Z,89.99
2019-05-09T02:11:54.460Z,90.11
2019-05-09T02:14:24.107Z,90.73
2019-05-09T02:16:54.125Z,90.63
2019-05-09T02:19:24.218Z,90.93
2019-05-09T02:21:53.159Z,91.93
2019-05-09T02:24:23.407Z,92.33
2019-05-09T02:26:53.352Z,92.74
2019-05-09T02:29:23.168Z,92.43
2019-05-09T02:31:54.433Z,92.89
2019-05-09T02:34:24.522Z,92.50
2019-05-09T02:36:51.897Z,91.95
2019-05-09T02:39:20.289Z,92.20
2019-05-09T02:42:01.198Z,91.61
2019-05-09T02:44:19.771Z,92.14
2019-05-09T02:46:59.124Z,91.68
2019-05-09T02:49:28.747Z,91.91
2019-05-09T02:51:59.163Z,91.61
2019-05-09T02:54:29.760Z,92.15
2019-05-09T02:56:58.240Z,92.46
2019-05-09T02:59:38.622Z,92.16
2019-05-09T03:02:25.123Z,92.74
2019-05-09T03:04:53.723Z,92.85
2019-05-09T03:07:23.853Z,93.00
2019-05-09T03:09:52.309Z,93.28
2019-05-09T03:12:30.465Z,92.70
2019-05-09T03:14:51.043Z,92.70
2019-05-09T03:17:19.427Z,92.81
2019-05-09T03:19:48.794Z,92.31
2019-05-09T03:22:21.875Z,92.57
2019-05-09T03:24:50.306Z,91.85
2019-05-09T03:28:43.512Z,92.93
2019-05-09T03:31:13.823Z,93.01
2019-05-09T03:33:42.285Z,92.70
2019-05-09T03:36:10.746Z,92.25
2019-05-09T03:38:39.370Z,91.92
2019-05-09T03:41:08.522Z,95.43
2019-05-09T03:43:37.733Z,98.04
2019-05-09T03:46:07.943Z,95.18
2019-05-09T03:48:38.099Z,93.38
2019-05-09T03:51:08.112Z,96.06
2019-05-09T03:53:37.979Z,94.48
2019-05-09T03:56:08.165Z,95.98
2019-05-09T03:58:38.482Z,93.04
2019-05-09T04:01:10.359Z,95.19
2019-05-09T04:03:37.840Z,91.28
2019-05-09T04:06:08.285Z,92.78
2019-05-09T04:08:37.643Z,91.96
2019-05-09T04:11:08.409Z,91.36
2019-05-09T04:13:41.014Z,90.32
2019-05-09T04:16:09.987Z,92.03
2019-05-09T04:18:40.242Z,89.30
2019-05-09T04:21:08.578Z,89.08
2019-05-09T04:23:37.882Z,90.18
2019-05-09T04:26:24.225Z,87.85
2019-05-09T04:28:52.614Z,86.70
2019-05-09T04:31:21.092Z,87.51
2019-05-09T04:33:49.493Z,88.29
2019-05-09T04:36:19.519Z,89.18
2019-05-09T04:38:48.179Z,89.69
2019-05-09T04:41:23.590Z,89.65
2019-05-09T04:43:48.650Z,89.65
2019-05-09T04:46:20.684Z,89.82
2019-05-09T04:48:47.662Z,89.70
2019-05-09T04:51:18.034Z,88.92
2019-05-09T04:53:47.971Z,87.79
2019-05-09T04:56:27.839Z,86.35
2019-05-09T04:58:58.321Z,85.55
2019-05-09T05:01:40.744Z,84.25
2019-05-09T05:04:09.395Z,84.48
2019-05-09T05:06:40.308Z,84.26
2019-05-09T05:09:09.206Z,83.95
2019-05-09T05:11:38.369Z,83.28
2019-05-09T05:14:09.150Z,82.69
2019-05-09T05:16:39.205Z,82.75
2019-05-09T05:19:07.594Z,82.37
2019-05-09T05:21:37.801Z,81.16
2019-05-09T05:24:13.890Z,81.16
2019-05-09T05:26:42.331Z,80.78
2019-05-09T05:29:10.712Z,79.70
2019-05-09T05:31:39.143Z,77.65
2019-05-09T05:34:14.933Z,77.65
2019-05-09T05:36:43.369Z,75.56
2019-05-09T05:39:11.746Z,75.34
2019-05-09T05:41:40.201Z,73.69
2019-05-09T05:44:08.691Z,73.51
2019-05-09T05:49:24.803Z,70.77
2019-05-09T05:51:53.285Z,71.60
2019-05-09T05:54:22.653Z,73.12
2019-05-09T05:56:51.480Z,73.90
2019-05-09T05:59:19.865Z,74.73
2019-05-09T06:01:49.855Z,76.28
2019-05-09T06:04:18.796Z,77.07
2019-05-09T06:06:48.025Z,78.35
2019-05-09T06:09:19.065Z,79.62
2019-05-09T06:11:48.521Z,79.36
2019-05-09T06:14:18.494Z,79.92
2019-05-09T06:16:48.643Z,80.61
2019-05-09T06:19:17.966Z,80.73
2019-05-09T06:21:48.555Z,80.57
2019-05-09T06:24:17.733Z,81.06
2019-05-09T06:26:47.885Z,82.57
2019-05-09T06:29:17.780Z,82.57
2019-05-09T06:31:48.360Z,83.03
2019-05-09T06:34:18.836Z,83.66
2019-05-09T06:36:48.966Z,84.25
2019-05-09T06:39:17.831Z,84.71
2019-05-09T06:41:48.382Z,84.50
2019-05-09T06:44:20.923Z,87.76
2019-05-09T06:46:50.965Z,87.76
2019-05-09T06:49:28.313Z,92.75
2019-05-09T06:51:53.893Z,89.58
2019-05-09T06:54:22.307Z,88.01
2019-05-09T06:56:50.861Z,86.12
2019-05-09T06:59:19.272Z,86.60
2019-05-09T07:01:49.303Z,85.69
2019-05-09T07:04:21.802Z,84.47
2019-05-09T07:06:51.978Z,85.51
2019-05-09T07:09:24.449Z,83.78
2019-05-09T07:11:52.844Z,84.03
2019-05-09T07:14:33.406Z,82.07
2019-05-09T07:17:01.955Z,82.66
2019-05-09T07:19:30.384Z,81.43
2019-05-09T07:22:18.153Z,80.11
2019-05-09T07:25:09.381Z,81.89
2019-05-09T07:27:39.276Z,80.68
2019-05-09T07:30:18.943Z,80.32
2019-05-09T07:32:58.021Z,79.70
2019-05-09T07:35:27.894Z,81.34
2019-05-09T07:37:57.904Z,81.55
2019-05-09T07:40:30.521Z,80.68
2019-05-09T07:42:58.546Z,80.83
2019-05-09T07:45:28.138Z,81.67
2019-05-09T07:47:58.372Z,81.78
2019-05-09T07:50:27.674Z,81.19
2019-05-09T07:52:58.161Z,81.74
2019-05-09T07:55:27.450Z,81.54
2019-05-09T07:57:58.749Z,80.78
2019-05-09T08:00:32.193Z,82.01
2019-05-09T08:03:00.637Z,81.37
2019-05-09T08:05:30.676Z,81.43
2019-05-09T08:07:59.137Z,81.71
2019-05-09T08:10:32.317Z,81.28
2019-05-09T08:12:58.664Z,81.56
2019-05-09T08:15:28.004Z,81.00
2019-05-09T08:17:59.116Z,78.65
2019-05-09T08:20:27.671Z,76.31
2019-05-09T08:22:58.672Z,75.27
2019-05-09T08:25:27.703Z,76.32
2019-05-09T08:27:58.556Z,74.82
2019-05-09T08:30:32.907Z,76.25
2019-05-09T08:32:59.654Z,78.90
2019-05-09T08:35:27.917Z,78.57
2019-05-09T08:37:58.364Z,76.30
2019-05-09T08:40:28.306Z,77.34
2019-05-09T08:42:58.817Z,77.13
2019-05-09T08:45:31.027Z,76.80
2019-05-09T08:47:58.068Z,77.43
2019-05-09T08:50:31.230Z,75.94
2019-05-09T08:52:59.632Z,77.91
2019-05-09T08:55:28.047Z,78.43
2019-05-09T08:57:58.668Z,77.48
2019-05-09T09:00:28.127Z,78.10
2019-05-09T09:02:57.520Z,80.24
2019-05-09T09:05:28.640Z,80.87
2019-05-09T09:07:57.760Z,82.36
2019-05-09T09:10:29.137Z,80.09
2019-05-09T09:12:58.128Z,77.94
2019-05-09T09:15:50.398Z,80.65
2019-05-09T09:17:58.024Z,81.35
2019-05-09T09:20:28.883Z,82.13
2019-05-09T09:22:58.234Z,81.51
2019-05-09T09:25:28.691Z,80.92
2019-05-09T09:27:58.129Z,81.01
2019-05-09T09:30:29.256Z,79.30
2019-05-09T09:32:58.590Z,80.49
2019-05-09T09:35:27.934Z,80.58
2019-05-09T09:37:58.050Z,79.37
2019-05-09T09:40:27.861Z,79.70
2019-05-09T09:42:58.044Z,80.84
2019-05-09T09:45:28.060Z,79.50
2019-05-09T09:47:59.064Z,76.79
2019-05-09T09:50:27.680Z,74.85
2019-05-09T09:52:58.925Z,74.19
2019-05-09T09:55:27.851Z,71.20
2019-05-09T09:57:57.862Z,69.79
2019-05-09T10:00:40.087Z,67.94
2019-05-09T10:03:08.472Z,70.08
2019-05-09T10:05:38.062Z,73.09
2019-05-09T10:08:10.361Z,72.11
2019-05-09T10:10:37.621Z,73.50
2019-05-09T10:13:10.387Z,71.45
2019-05-09T10:15:52.964Z,70.84
2019-05-09T10:18:23.019Z,69.70
2019-05-09T10:20:53.127Z,69.61
2019-05-09T10:23:21.836Z,67.19
2019-05-09T10:25:50.426Z,65.27
2019-05-09T10:28:21.430Z,65.20
2019-05-09T10:30:48.979Z,66.82
2019-05-09T10:33:17.669Z,66.12
2019-05-09T10:35:47.946Z,67.65
2019-05-09T10:38:18.380Z,68.33
2019-05-09T10:40:48.481Z,68.20
2019-05-09T10:43:34.701Z,66.82
2019-05-09T10:46:09.054Z,66.98
2019-05-09T10:48:38.637Z,67.93
2019-05-09T10:51:10.531Z,67.96
2019-05-09T10:53:37.268Z,69.20
2019-05-09T10:56:08.651Z,69.05
2019-05-09T10:58:37.409Z,70.12
2019-05-09T11:01:09.078Z,68.97
2019-05-09T11:03:37.687Z,70.26
2019-05-09T11:06:08.607Z,71.52
2019-05-09T11:08:38.045Z,72.24
2019-05-09T11:11:09.328Z,71.98
2019-05-09T11:13:39.017Z,73.40
2019-05-09T11:16:07.673Z,77.86
2019-05-09T11:18:36.283Z,80.21
2019-05-09T11:21:04.736Z,81.66
2019-05-09T11:23:33.338Z,83.16
2019-05-09T11:26:01.962Z,84.68
2019-05-09T11:28:36.281Z,87.02
2019-05-09T11:31:04.853Z,87.92
2019-05-09T11:33:33.369Z,87.39
2019-05-09T11:36:01.964Z,88.08
2019-05-09T11:38:36.466Z,87.59
2019-05-09T11:41:00.677Z,86.00
2019-05-09T11:43:29.873Z,86.34
2019-05-09T11:45:58.805Z,84.12
2019-05-09T11:48:29.336Z,88.03
2019-05-09T11:50:58.953Z,88.82
2019-05-09T11:53:28.855Z,89.11
2019-05-09T11:55:57.919Z,88.93
2019-05-09T11:58:28.000Z,89.13
2019-05-09T12:00:56.628Z,88.35
2019-05-09T12:03:25.030Z,89.29
2019-05-09T12:05:53.470Z,89.45
2019-05-09T12:08:22.149Z,88.74
2019-05-09T12:10:50.644Z,89.39
2019-05-09T12:13:19.049Z,89.38
2019-05-09T12:15:48.933Z,91.29
2019-05-09T12:18:17.558Z,92.75
2019-05-09T12:20:48.285Z,93.02
2019-05-09T12:23:19.634Z,93.90
2019-05-09T12:25:46.453Z,94.50
2019-05-09T12:28:14.983Z,95.21
2019-05-09T12:30:43.429Z,95.92
2019-05-09T12:33:11.827Z,95.32
2019-05-09T12:35:40.241Z,95.12
2019-05-09T12:38:08.732Z,95.64
2019-05-09T12:40:38.884Z,94.02
2019-05-09T12:43:09.072Z,95.15
2019-05-09T12:45:38.797Z,94.48
2019-05-09T12:48:15.117Z,94.17
2019-05-09T12:50:38.762Z,94.94
2019-05-09T12:53:07.259Z,95.37
2019-05-09T12:55:35.643Z,95.40
2019-05-09T12:58:04.216Z,95.55
2019-05-09T13:00:32.634Z,92.74
2019-05-09T13:03:01.102Z,93.64
2019-05-09T13:05:31.052Z,94.67
2019-05-09T13:07:59.481Z,93.43
2019-05-09T13:10:28.365Z,93.81
2019-05-09T13:12:56.882Z,93.66
2019-05-09T13:15:31.102Z,94.28
2019-05-09T13:17:58.058Z,94.37
2019-05-09T13:20:28.565Z,95.51
2019-05-09T13:22:58.837Z,94.06
2019-05-09T13:25:28.913Z,94.06
2019-05-09T13:27:58.180Z,92.87
2019-05-09T13:30:28.522Z,92.78
2019-05-09T13:32:57.010Z,93.24
2019-05-09T13:35:27.768Z,92.26
2019-05-09T13:37:55.590Z,89.86
2019-05-09T13:40:24.048Z,90.98
2019-05-09T13:42:52.442Z,91.02
2019-05-09T13:45:20.850Z,91.31
2019-05-09T13:47:49.684Z,91.93
2019-05-09T13:50:18.763Z,90.89
2019-05-09T13:52:48.048Z,91.07
2019-05-09T13:55:17.775Z,91.95
2019-05-09T13:57:48.517Z,92.40
2019-05-09T14:00:18.526Z,94.73
2019-05-09T14:02:48.768Z,95.35
2019-05-09T14:05:19.114Z,96.92
2019-05-09T14:07:49.160Z,96.94
2019-05-09T14:10:18.164Z,97.96
2019-05-09T14:13:03.692Z,97.57
2019-05-09T14:15:18.455Z,97.61
2019-05-09T14:17:53.008Z,95.63
2019-05-09T14:20:17.991Z,94.07
2019-05-09T14:22:49.054Z,94.93
2019-05-09T14:25:19.469Z,91.44
2019-05-09T14:27:51.496Z,91.36
2019-05-09T14:30:19.734Z,90.68
2019-05-09T14:32:49.733Z,90.12
2019-05-09T14:35:18.542Z,88.68
2019-05-09T14:37:48.797Z,89.20
2019-05-09T14:40:17.735Z,88.99
2019-05-09T14:42:46.314Z,88.17
2019-05-09T14:45:17.922Z,88.60
2019-05-09T14:47:45.408Z,91.17
2019-05-09T14:50:14.064Z,90.47
2019-05-09T14:52:42.471Z,90.05
2019-05-09T14:55:11.229Z,91.42
2019-05-09T14:57:39.679Z,89.76
2019-05-09T15:00:08.573Z,90.19
2019-05-09T15:02:38.936Z,90.84
2019-05-09T15:05:09.408Z,91.10
2019-05-09T15:07:38.901Z,89.31
2019-05-09T15:10:08.621Z,88.58
2019-05-09T15:12:39.442Z,89.53
2019-05-09T15:15:09.041Z,88.84
2019-05-09T15:17:37.994Z,90.59
2019-05-09T15:20:08.865Z,90.99
2019-05-09T15:22:38.647Z,91.30
2019-05-09T15:25:08.794Z,92.43
2019-05-09T15:27:38.488Z,93.53
2019-05-09T15:30:07.659Z,93.62
2019-05-09T15:32:37.719Z,96.86
2019-05-09T15:35:08.970Z,96.46
2019-05-09T15:37:38.522Z,96.77
2019-05-09T15:40:08.740Z,97.24
2019-05-09T15:42:38.963Z,98.06
2019-05-09T15:45:08.324Z,97.51
2019-05-09T15:47:38.601Z,97.63
2019-05-09T15:50:18.873Z,97.23
2019-05-09T15:52:39.395Z,97.12
2019-05-09T15:55:09.493Z,96.24
2019-05-09T15:57:38.231Z,94.41
2019-05-09T16:00:09.938Z,92.81
2019-05-09T16:02:39.234Z,95.10
2019-05-09T16:05:10.554Z,92.54
2019-05-09T16:07:38.601Z,92.77
2019-05-09T16:10:09.382Z,94.79
2019-05-09T16:12:38.525Z,93.74
2019-05-09T16:15:07.904Z,94.93
2019-05-09T16:17:39.320Z,94.41
2019-05-09T16:20:08.444Z,96.67
2019-05-09T16:22:39.139Z,98.27
2019-05-09T16:25:08.421Z,100.00
2019-05-09T16:27:37.964Z,100.00
2019-05-09T16:30:08.527Z,100.00
2019-05-09T16:32:37.796Z,100.00
2019-05-09T16:35:07.912Z,100.00
2019-05-09T16:37:57.280Z,100.00
2019-05-09T16:40:08.410Z,100.00
2019-05-09T16:42:38.103Z,100.00
2019-05-09T16:45:08.147Z,100.00
2019-05-09T16:47:36.700Z,100.00
2019-05-09T16:50:11.631Z,100.00
2019-05-09T16:52:43.090Z,100.00
2019-05-09T16:55:10.315Z,100.00
2019-05-09T16:57:38.714Z,100.00
2019-05-09T17:00:13.506Z,100.00
2019-05-09T17:02:42.081Z,100.00
2019-05-09T17:05:10.715Z,100.00
2019-05-09T17:07:39.119Z,100.00
2019-05-09T17:10:08.541Z,100.00
2019-05-09T17:12:37.031Z,100.00
2019-05-09T17:15:08.533Z,100.00
2019-05-09T17:17:38.505Z,100.00
2019-05-09T17:20:08.895Z,100.00
2019-05-09T17:23:08.308Z,100.00
2019-05-09T17:25:27.995Z,100.00
2019-05-09T17:27:59.124Z,100.00
2019-05-09T17:30:28.418Z,100.00
2019-05-09T17:32:58.469Z,100.00
2019-05-09T17:35:28.022Z,100.00
2019-05-09T17:37:56.771Z,100.00
2019-05-09T17:40:27.961Z,100.00
2019-05-09T17:42:56.182Z,100.00
2019-05-09T17:45:24.675Z,100.00
2019-05-09T17:47:53.417Z,100.00
2019-05-09T17:50:22.692Z,100.00
2019-05-09T17:52:51.110Z,100.00
2019-05-09T17:55:19.607Z,100.00
2019-05-09T17:57:48.155Z,100.00
2019-05-09T18:00:21.682Z,100.00
2019-05-09T18:02:48.586Z,100.00
2019-05-09T18:05:17.969Z,100.00
2019-05-09T18:07:48.521Z,100.00
2019-05-09T18:10:18.514Z,100.00
2019-05-09T18:12:48.062Z,100.00
2019-05-09T18:15:18.772Z,100.00
2019-05-09T18:17:48.019Z,100.00
2019-05-09T18:20:17.692Z,99.94
2019-05-09T18:22:47.929Z,100.00
2019-05-09T18:25:18.779Z,100.00
2019-05-09T18:27:48.789Z,100.00
2019-05-09T18:30:18.648Z,100.00
2019-05-09T18:32:51.818Z,98.69
2019-05-09T18:35:21.886Z,98.35
2019-05-09T18:37:50.639Z,98.13
2019-05-09T18:40:19.575Z,98.27
2019-05-09T18:42:48.063Z,98.82
2019-05-09T18:45:17.657Z,98.38
2019-05-09T18:47:47.988Z,99.17
2019-05-09T18:50:16.926Z,99.21
2019-05-09T18:52:45.532Z,99.94
2019-05-09T18:55:15.664Z,99.78
2019-05-09T18:57:48.362Z,100.00
2019-05-09T19:00:19.601Z,100.00
2019-05-09T19:02:48.554Z,100.00
2019-05-09T19:05:18.823Z,100.00
2019-05-09T19:07:47.408Z,100.00
2019-05-09T19:10:17.577Z,100.00
2019-05-09T19:12:46.089Z,100.00
2019-05-09T19:15:16.759Z,100.00
2019-05-09T19:18:04.852Z,100.00
2019-05-09T19:20:50.911Z,100.00
2019-05-09T19:23:19.314Z,100.00
2019-05-09T19:25:47.832Z,100.00
2019-05-09T19:28:16.295Z,100.00
2019-05-09T19:30:44.734Z,100.00
2019-05-09T19:33:13.140Z,100.00
2019-05-09T19:35:41.707Z,100.00
2019-05-09T19:38:10.107Z,100.00
2019-05-09T19:40:38.651Z,100.00
2019-05-09T19:43:07.129Z,100.00
2019-05-09T19:45:35.717Z,100.00
2019-05-09T19:48:04.362Z,100.00
2019-05-09T19:50:33.071Z,100.00
2019-05-09T19:53:01.470Z,100.00
2019-05-09T19:55:29.911Z,100.00
2019-05-09T19:57:58.413Z,100.00
2019-05-09T20:03:43.311Z,100.00
2019-05-09T20:06:11.714Z,100.00
2019-05-09T20:08:40.159Z,100.00
2019-05-09T20:11:13.229Z,100.00
2019-05-09T20:13:58.691Z,99.94
2019-05-09T20:16:29.623Z,98.71
2019-05-09T20:18:58.483Z,99.33
2019-05-09T20:21:27.122Z,97.49
2019-05-09T20:23:55.721Z,96.59
2019-05-09T20:26:24.325Z,96.60
2019-05-09T20:28:52.698Z,97.04
2019-05-09T20:31:21.115Z,97.86
2019-05-09T20:33:49.951Z,97.64
2019-05-09T20:36:18.350Z,97.66
2019-05-09T20:38:47.002Z,98.08
2019-05-09T20:41:15.595Z,98.19
2019-05-09T20:43:44.280Z,98.60
2019-05-09T20:46:12.866Z,98.62
2019-05-09T20:48:41.488Z,98.66
2019-05-09T20:51:10.170Z,99.17
2019-05-09T20:53:38.725Z,99.43
2019-05-09T20:56:07.329Z,100.00
2019-05-09T20:58:36.022Z,100.00
2019-05-09T21:01:04.666Z,100.00
2019-05-09T21:03:33.296Z,100.00
2019-05-09T21:06:01.910Z,100.00
2019-05-09T21:08:30.531Z,100.00
2019-05-09T21:10:59.130Z,100.00
2019-05-09T21:13:27.898Z,100.00
2019-05-09T21:15:56.480Z,100.00
2019-05-09T21:18:25.325Z,100.00
2019-05-09T21:20:54.107Z,100.00
2019-05-09T21:23:24.750Z,100.00
2019-05-09T21:25:53.131Z,100.00
2019-05-09T21:28:21.705Z,100.00
2019-05-09T21:30:50.390Z,100.00
2019-05-09T21:33:18.968Z,100.00
2019-05-09T21:35:47.453Z,100.00
2019-05-09T21:38:15.849Z,100.00
2019-05-09T21:40:44.716Z,100.00
2019-05-09T21:43:13.139Z,100.00
2019-05-09T21:45:43.019Z,100.00
2019-05-09T21:48:11.508Z,100.00
2019-05-09T21:50:40.020Z,100.00
2019-05-09T21:53:08.425Z,100.00
2019-05-09T21:55:36.853Z,100.00
2019-05-09T21:58:05.362Z,100.00
2019-05-09T22:00:37.842Z,100.00
2019-05-09T22:03:06.890Z,100.00
2019-05-09T22:05:36.721Z,100.00
2019-05-09T22:08:05.411Z,100.00
2019-05-09T22:10:34.061Z,100.00
2019-05-09T22:13:02.605Z,100.00
2019-05-09T22:15:31.083Z,100.00
2019-05-09T22:17:59.571Z,100.00
2019-05-09T22:20:28.236Z,100.00
2019-05-09T22:22:56.635Z,100.00
2019-05-09T22:25:25.100Z,100.00
2019-05-09T22:27:58.901Z,100.00
2019-05-09T22:30:27.426Z,100.00
2019-05-09T22:32:55.850Z,100.00
2019-05-09T22:35:24.408Z,100.00
2019-05-09T22:37:52.848Z,100.00
2019-05-09T22:40:21.310Z,100.00
2019-05-09T22:42:49.731Z,100.00
2019-05-09T22:45:18.861Z,100.00
2019-05-09T22:47:47.294Z,100.00
2019-05-09T22:50:15.743Z,100.00
2019-05-09T22:52:44.153Z,100.00
2019-05-09T22:55:12.889Z,100.00
2019-05-09T22:57:41.513Z,100.00
2019-05-09T23:00:10.377Z,100.00
2019-05-09T23:02:38.925Z,100.00
2019-05-09T23:05:08.096Z,100.00
2019-05-09T23:07:36.517Z,100.00
2019-05-09T23:10:06.649Z,100.00
2019-05-09T23:12:35.269Z,99.86
2019-05-09T23:15:04.094Z,99.44
2019-05-09T23:17:32.515Z,99.56
2019-05-09T23:20:02.630Z,99.97
2019-05-09T23:22:32.601Z,99.42
2019-05-09T23:25:01.031Z,99.19
2019-05-09T23:27:29.428Z,100.00
2019-05-09T23:29:57.829Z,100.00
2019-05-09T23:32:27.883Z,100.00
2019-05-09T23:34:56.266Z,100.00
2019-05-09T23:37:24.674Z,100.00
2019-05-09T23:39:54.900Z,100.00
2019-05-09T23:42:23.290Z,100.00
2019-05-09T23:44:51.687Z,100.00
2019-05-09T23:47:20.157Z,99.24
2019-05-09T23:49:48.620Z,99.30
2019-05-09T23:52:17.185Z,98.80
2019-05-09T23:55:03.696Z,98.32
2019-05-09T23:57:49.627Z,98.27
